Time;durP1;ratioP1;P1;durP2;ratioP2;P2;SDS_P1;SDS_P2;PMS_P1;PMS_P2;Temp;Humidity;BMP_temperature;BMP_pressure;BME280_temperature;BME280_humidity;BME280_pressure;Samples;Min_cycle;Max_cycle;Signal;HPM_P1;HPM_P2
2021/08/22 00:02:06;;;;;;;6.07;5.00;;;18.70;99.90;;;;;;5015841;28;20180;-78
2021/08/22 00:04:32;;;;;;;6.90;5.03;;;18.70;99.90;;;;;;4999652;28;20214;-79
2021/08/22 00:06:58;;;;;;;6.67;5.47;;;18.60;99.90;;;;;;4999554;28;20203;-78
2021/08/22 00:09:23;;;;;;;6.13;5.53;;;18.60;99.90;;;;;;5015960;28;20179;-78
2021/08/22 00:11:49;;;;;;;6.97;5.60;;;18.50;99.90;;;;;;5016429;28;20176;-78
2021/08/22 00:14:14;;;;;;;6.93;5.63;;;18.50;99.90;;;;;;4999503;28;20651;-78
2021/08/22 00:16:40;;;;;;;7.33;5.60;;;18.50;99.90;;;;;;4999101;28;20176;-78
2021/08/22 00:19:06;;;;;;;6.70;5.70;;;18.40;99.90;;;;;;5013572;28;20183;-78
2021/08/22 00:21:31;;;;;;;6.80;5.53;;;18.40;99.90;;;;;;4996647;28;20179;-78
2021/08/22 00:23:57;;;;;;;8.37;6.00;;;18.40;99.90;;;;;;5013165;28;20175;-79
2021/08/22 00:26:22;;;;;;;7.17;6.47;;;18.40;99.90;;;;;;5012700;28;20179;-79
2021/08/22 00:28:48;;;;;;;6.93;6.23;;;18.40;99.90;;;;;;5013426;28;20208;-79
2021/08/22 00:31:13;;;;;;;6.50;5.90;;;18.40;99.90;;;;;;5013045;28;20178;-79
2021/08/22 00:33:39;;;;;;;8.47;6.77;;;18.40;99.90;;;;;;5012751;28;20665;-79
2021/08/22 00:36:04;;;;;;;7.70;6.77;;;18.30;99.90;;;;;;5012861;28;20553;-80
2021/08/22 00:38:32;;;;;;;10.03;7.90;;;18.20;99.90;;;;;;5012266;28;20195;-78
2021/08/22 00:40:59;;;;;;;12.37;9.97;;;18.20;99.90;;;;;;5012211;28;20291;-78
2021/08/22 00:43:24;;;;;;;19.43;11.07;;;18.10;99.90;;;;;;5012958;28;20171;-78
2021/08/22 00:45:50;;;;;;;13.70;10.80;;;17.90;99.90;;;;;;4996757;28;20777;-78
2021/08/22 00:48:15;;;;;;;14.47;11.47;;;17.60;99.90;;;;;;5013013;28;20575;-79
2021/08/22 00:50:41;;;;;;;13.17;11.37;;;17.50;99.90;;;;;;5012581;28;20180;-79
2021/08/22 00:53:06;;;;;;;16.57;12.53;;;17.40;99.90;;;;;;5012898;28;20175;-78
2021/08/22 00:55:35;;;;;;;15.80;13.20;;;17.40;99.90;;;;;;5012975;28;20179;-78
2021/08/22 00:58:01;;;;;;;14.73;13.03;;;17.30;99.90;;;;;;5012806;28;20252;-78
2021/08/22 01:00:26;;;;;;;18.63;13.57;;;17.30;99.90;;;;;;5012379;28;20191;-79
2021/08/22 01:02:55;;;;;;;18.10;13.17;;;17.30;99.90;;;;;;5012554;28;20199;-79
2021/08/22 01:05:40;;;;;;;14.20;12.67;;;17.30;99.90;;;;;;5012532;28;20207;-78
2021/08/22 01:08:19;;;;;;;15.10;13.50;;;17.30;99.90;;;;;;5011928;28;20191;-79
2021/08/22 01:10:45;;;;;;;16.70;12.97;;;17.30;99.90;;;;;;5011917;28;20183;-78
2021/08/22 01:13:13;;;;;;;14.63;12.43;;;17.30;99.90;;;;;;5012307;28;20179;-78
2021/08/22 01:15:41;;;;;;;15.17;13.30;;;17.30;99.90;;;;;;5012187;28;20176;-78
2021/08/22 01:18:10;;;;;;;15.57;13.13;;;17.40;99.90;;;;;;5012045;28;20300;-78
2021/08/22 01:20:49;;;;;;;18.30;12.63;;;17.30;99.90;;;;;;5011707;28;20241;-78
2021/08/22 01:23:15;;;;;;;13.77;12.30;;;17.30;99.90;;;;;;5012342;28;20183;-78
2021/08/22 01:25:40;;;;;;;14.23;12.43;;;17.30;99.90;;;;;;4995725;28;20241;-78
2021/08/22 01:28:06;;;;;;;16.80;13.13;;;17.30;99.90;;;;;;5012009;28;20201;-78
2021/08/22 01:30:41;;;;;;;14.77;12.80;;;17.40;99.90;;;;;;5011785;28;20175;-78
2021/08/22 01:33:15;;;;;;;14.10;12.60;;;17.40;99.90;;;;;;5011780;28;20192;-78
2021/08/22 01:35:40;;;;;;;17.87;13.60;;;17.40;99.90;;;;;;5011689;28;20266;-79
2021/08/22 01:38:06;;;;;;;15.03;12.77;;;17.50;99.90;;;;;;5011922;28;20231;-79
2021/08/22 01:40:31;;;;;;;17.93;12.83;;;17.40;99.90;;;;;;5011742;28;20190;-78
2021/08/22 01:42:57;;;;;;;17.83;13.87;;;17.40;99.90;;;;;;5011674;28;20186;-78
2021/08/22 01:45:22;;;;;;;14.90;13.13;;;17.30;99.90;;;;;;5011696;28;20679;-78
2021/08/22 01:47:48;;;;;;;15.97;13.00;;;17.30;99.90;;;;;;4995441;28;20257;-77
2021/08/22 01:50:16;;;;;;;13.97;12.53;;;17.30;99.90;;;;;;5011553;28;20276;-76
2021/08/22 01:52:41;;;;;;;15.93;12.33;;;17.30;99.90;;;;;;5011747;28;20187;-75
2021/08/22 01:55:08;;;;;;;15.77;13.23;;;17.30;99.90;;;;;;5011486;28;20236;-76
2021/08/22 01:57:36;;;;;;;14.30;12.80;;;17.30;99.90;;;;;;5011864;28;20736;-76
2021/08/22 02:00:02;;;;;;;15.30;12.60;;;17.30;99.90;;;;;;5011577;28;20183;-76
2021/08/22 02:02:28;;;;;;;15.50;13.40;;;17.30;99.90;;;;;;4995479;28;20191;-75
2021/08/22 02:05:01;;;;;;;16.27;14.57;;;17.30;99.90;;;;;;5011319;28;20805;-76
2021/08/22 02:07:30;;;;;;;15.13;13.17;;;17.30;99.90;;;;;;5011342;28;20285;-76
2021/08/22 02:10:30;;;;;;;15.73;14.03;;;17.30;99.90;;;;;;4995125;28;20191;-75
2021/08/22 02:12:58;;;;;;;17.10;13.73;;;17.20;99.90;;;;;;4997570;28;20198;-76
2021/08/22 02:15:27;;;;;;;17.07;14.00;;;17.20;99.90;;;;;;5011474;28;20544;-76
2021/08/22 02:18:15;;;;;;;17.73;14.73;;;17.20;99.90;;;;;;4994700;28;20222;-75
2021/08/22 02:20:45;;;;;;;17.57;13.57;;;17.20;99.90;;;;;;5012574;28;20646;-76
2021/08/22 02:23:11;;;;;;;16.97;14.10;;;17.10;99.90;;;;;;5015502;28;20179;-76
2021/08/22 02:25:37;;;;;;;15.27;13.10;;;17.20;99.90;;;;;;5015596;28;20289;-76
2021/08/22 02:28:03;;;;;;;14.80;13.20;;;17.10;99.90;;;;;;5015122;28;20231;-76
2021/08/22 02:30:35;;;;;;;16.00;14.03;;;17.10;99.90;;;;;;5015182;28;20178;-75
2021/08/22 02:33:04;;;;;;;16.27;14.33;;;17.00;99.90;;;;;;4998715;28;20179;-75
2021/08/22 02:35:30;;;;;;;16.60;14.20;;;17.00;99.90;;;;;;5015155;28;20179;-76
2021/08/22 02:37:56;;;;;;;17.13;13.57;;;17.00;99.90;;;;;;5015244;28;20225;-76
2021/08/22 02:40:21;;;;;;;17.97;14.73;;;17.00;99.90;;;;;;4998268;28;20187;-76
2021/08/22 02:42:47;;;;;;;17.43;14.43;;;17.00;99.90;;;;;;5015629;28;20186;-76
2021/08/22 02:45:12;;;;;;;19.37;14.80;;;17.00;99.90;;;;;;5015240;28;20203;-76
2021/08/22 02:47:38;;;;;;;16.93;14.07;;;17.00;99.90;;;;;;5015997;28;20203;-76
2021/08/22 02:50:04;;;;;;;15.80;14.10;;;17.00;99.90;;;;;;5014532;28;20255;-76
2021/08/22 02:52:29;;;;;;;19.13;15.43;;;17.00;99.90;;;;;;5015148;28;20601;-76
2021/08/22 02:54:55;;;;;;;17.70;14.50;;;17.00;99.90;;;;;;5014700;28;20188;-76
2021/08/22 02:57:20;;;;;;;17.43;15.33;;;17.00;99.90;;;;;;5015091;28;20211;-76
2021/08/22 02:59:46;;;;;;;18.63;14.53;;;17.00;99.90;;;;;;5014503;28;20184;-76
2021/08/22 03:02:12;;;;;;;19.20;15.27;;;17.00;99.90;;;;;;5014828;28;20263;-76
2021/08/22 03:04:37;;;;;;;19.17;15.97;;;17.00;99.90;;;;;;5014606;28;20222;-76
2021/08/22 03:07:03;;;;;;;18.70;15.83;;;17.00;99.90;;;;;;5015833;28;20200;-75
2021/08/22 03:09:29;;;;;;;18.30;15.23;;;17.00;99.90;;;;;;5015379;28;20188;-76
2021/08/22 03:11:54;;;;;;;20.57;16.43;;;17.00;99.90;;;;;;5014560;28;20172;-76
2021/08/22 03:14:20;;;;;;;17.20;14.47;;;17.00;99.90;;;;;;5014527;28;20184;-75
2021/08/22 03:16:45;;;;;;;18.77;15.63;;;17.00;99.90;;;;;;5014387;28;20206;-76
2021/08/22 03:19:11;;;;;;;18.00;15.27;;;17.00;99.90;;;;;;5015135;28;20571;-76
2021/08/22 03:21:37;;;;;;;18.17;15.70;;;17.00;99.90;;;;;;5014486;28;20267;-77
2021/08/22 03:24:02;;;;;;;19.70;16.03;;;17.00;99.90;;;;;;5014386;28;20186;-76
2021/08/22 03:26:28;;;;;;;18.00;16.03;;;17.00;99.90;;;;;;5014133;28;20634;-76
2021/08/22 03:28:53;;;;;;;18.33;16.00;;;17.10;99.90;;;;;;5013976;28;20199;-75
2021/08/22 03:31:19;;;;;;;19.30;16.30;;;17.10;99.90;;;;;;5013859;28;20214;-76
2021/08/22 03:33:45;;;;;;;18.30;15.87;;;17.10;99.90;;;;;;5014536;28;20186;-76
2021/08/22 03:36:10;;;;;;;22.00;16.40;;;17.10;99.90;;;;;;5014383;28;20183;-75
2021/08/22 03:38:36;;;;;;;17.93;15.23;;;17.10;99.90;;;;;;4997967;28;20210;-77
2021/08/22 03:41:01;;;;;;;16.30;13.93;;;17.10;99.90;;;;;;4997590;28;20233;-76
2021/08/22 03:43:27;;;;;;;18.83;14.73;;;17.10;99.90;;;;;;5013998;28;20206;-77
2021/08/22 03:45:52;;;;;;;20.83;14.73;;;17.10;99.90;;;;;;5013741;28;20230;-76
2021/08/22 03:48:18;;;;;;;15.87;13.70;;;17.10;99.90;;;;;;5013781;28;20196;-76
2021/08/22 03:50:43;;;;;;;17.60;13.80;;;17.10;99.90;;;;;;5013687;28;20245;-76
2021/08/22 03:53:09;;;;;;;16.40;13.10;;;17.10;99.90;;;;;;5013731;28;20184;-77
2021/08/22 03:55:34;;;;;;;16.63;13.33;;;17.10;99.90;;;;;;4997252;28;20180;-76
2021/08/22 03:58:00;;;;;;;14.93;12.50;;;17.20;99.90;;;;;;5013641;28;20227;-76
2021/08/22 04:00:26;;;;;;;15.63;12.17;;;17.20;99.90;;;;;;5013661;28;20180;-77
2021/08/22 04:02:51;;;;;;;16.23;12.27;;;17.20;99.90;;;;;;4996946;28;20187;-77
2021/08/22 04:05:17;;;;;;;16.30;11.83;;;17.20;99.90;;;;;;5013359;28;20290;-77
2021/08/22 04:07:49;;;;;;;17.17;12.87;;;17.20;99.90;;;;;;5013406;28;20214;-77
2021/08/22 04:10:15;;;;;;;15.73;12.67;;;17.30;99.90;;;;;;4997657;28;20175;-77
2021/08/22 04:12:41;;;;;;;15.10;13.50;;;17.30;99.90;;;;;;5013334;28;20175;-76
2021/08/22 04:15:06;;;;;;;16.93;13.17;;;17.30;99.90;;;;;;5013450;28;20179;-77
2021/08/22 04:17:32;;;;;;;14.57;12.27;;;17.30;99.90;;;;;;5013035;28;20247;-77
2021/08/22 04:19:58;;;;;;;15.67;12.87;;;17.30;99.90;;;;;;5012703;28;20251;-78
2021/08/22 04:22:23;;;;;;;15.63;12.17;;;17.30;99.90;;;;;;5013115;28;20182;-77
2021/08/22 04:24:49;;;;;;;14.23;11.90;;;17.30;99.90;;;;;;5012905;28;20278;-77
2021/08/22 04:27:14;;;;;;;15.13;12.13;;;17.30;99.90;;;;;;4996665;28;20238;-77
2021/08/22 04:29:40;;;;;;;15.80;12.10;;;17.30;99.90;;;;;;4996227;28;20527;-77
2021/08/22 04:32:06;;;;;;;14.03;11.13;;;17.30;99.90;;;;;;5013693;28;20545;-77
2021/08/22 04:34:32;;;;;;;14.97;11.57;;;17.20;99.90;;;;;;5012704;28;20176;-77
2021/08/22 04:36:57;;;;;;;13.90;11.93;;;17.20;99.90;;;;;;5012828;28;20357;-77
2021/08/22 04:39:23;;;;;;;13.67;11.10;;;17.10;99.90;;;;;;5012441;28;20181;-77
2021/08/22 04:41:49;;;;;;;14.17;11.50;;;17.10;99.90;;;;;;5012873;28;20167;-77
2021/08/22 04:44:14;;;;;;;14.57;11.37;;;17.20;99.90;;;;;;5011901;28;20251;-77
2021/08/22 04:46:42;;;;;;;15.10;11.63;;;17.20;99.90;;;;;;5012038;28;20211;-77
2021/08/22 04:49:08;;;;;;;16.10;12.67;;;17.20;99.90;;;;;;4996446;28;20182;-77
2021/08/22 04:51:33;;;;;;;13.53;12.03;;;17.20;99.90;;;;;;5012508;28;20262;-77
2021/08/22 04:53:59;;;;;;;17.20;13.53;;;17.20;99.90;;;;;;5012532;28;20172;-78
2021/08/22 04:56:24;;;;;;;15.50;12.63;;;17.20;99.90;;;;;;4995958;28;20218;-77
2021/08/22 04:58:50;;;;;;;16.83;13.10;;;17.20;99.90;;;;;;5012114;28;20373;-77
2021/08/22 05:01:16;;;;;;;15.67;12.33;;;17.30;99.90;;;;;;5012275;28;20184;-77
2021/08/22 05:03:42;;;;;;;16.27;13.30;;;17.30;99.90;;;;;;5011994;28;20564;-77
2021/08/22 05:06:10;;;;;;;16.17;12.43;;;17.30;99.90;;;;;;5012482;28;20286;-77
2021/08/22 05:08:36;;;;;;;15.23;13.20;;;17.30;99.90;;;;;;5011949;28;20196;-77
2021/08/22 05:11:02;;;;;;;15.33;11.83;;;17.30;99.90;;;;;;4995753;28;20231;-76
2021/08/22 05:13:27;;;;;;;15.90;12.90;;;17.30;99.90;;;;;;5012180;28;20179;-77
2021/08/22 05:15:55;;;;;;;15.47;12.87;;;17.40;99.90;;;;;;5011967;28;20236;-77
2021/08/22 05:18:21;;;;;;;16.57;13.20;;;17.40;99.90;;;;;;5011528;28;20448;-78
2021/08/22 05:20:47;;;;;;;15.33;12.57;;;17.40;99.90;;;;;;5011730;28;20183;-77
2021/08/22 05:23:13;;;;;;;18.63;13.53;;;17.40;99.90;;;;;;5012054;28;20176;-77
2021/08/22 05:25:38;;;;;;;17.33;13.13;;;17.40;99.90;;;;;;5011798;28;20599;-77
2021/08/22 05:28:04;;;;;;;16.43;13.53;;;17.40;99.90;;;;;;5013028;28;20196;-77
2021/08/22 05:30:30;;;;;;;15.83;13.03;;;17.40;99.90;;;;;;5011523;28;20290;-77
2021/08/22 05:32:55;;;;;;;15.23;13.20;;;17.40;99.90;;;;;;5011590;28;20523;-77
2021/08/22 05:35:21;;;;;;;17.90;13.47;;;17.40;99.90;;;;;;5011781;28;20257;-77
2021/08/22 05:37:46;;;;;;;15.40;13.30;;;17.40;99.90;;;;;;5011814;28;20191;-77
2021/08/22 05:40:12;;;;;;;17.63;13.50;;;17.50;99.90;;;;;;5011480;28;20182;-77
2021/08/22 05:42:38;;;;;;;18.60;13.40;;;17.50;99.90;;;;;;5011653;28;20258;-77
2021/08/22 05:45:04;;;;;;;19.07;14.27;;;17.50;99.90;;;;;;5011278;28;20566;-77
2021/08/22 05:47:29;;;;;;;17.93;14.33;;;17.50;99.90;;;;;;5011543;28;20229;-77
2021/08/22 05:49:55;;;;;;;17.03;13.83;;;17.50;99.90;;;;;;5011255;28;20703;-77
2021/08/22 05:52:20;;;;;;;17.10;15.13;;;17.50;99.90;;;;;;4995070;28;20554;-77
2021/08/22 05:54:46;;;;;;;17.23;14.77;;;17.50;99.90;;;;;;5010801;28;20553;-78
2021/08/22 05:57:11;;;;;;;16.70;14.23;;;17.50;99.90;;;;;;4994762;28;20207;-77
2021/08/22 05:59:37;;;;;;;18.33;14.60;;;17.50;99.90;;;;;;4994631;28;20183;-77
2021/08/22 06:02:03;;;;;;;18.83;15.83;;;17.50;99.90;;;;;;5011295;28;20188;-77
2021/08/22 06:04:28;;;;;;;18.40;14.53;;;17.50;99.90;;;;;;5010974;28;20207;-77
2021/08/22 06:06:54;;;;;;;18.00;14.60;;;17.60;99.90;;;;;;5011262;28;20219;-77
2021/08/22 06:09:19;;;;;;;18.90;15.77;;;17.60;99.90;;;;;;5011104;28;20171;-77
2021/08/22 06:11:45;;;;;;;18.13;15.00;;;17.60;99.90;;;;;;5011252;28;20178;-77
2021/08/22 06:14:10;;;;;;;19.43;15.30;;;17.60;99.90;;;;;;5011266;28;20172;-77
2021/08/22 06:16:36;;;;;;;20.90;15.77;;;17.50;99.90;;;;;;5011106;28;20230;-77
2021/08/22 06:19:01;;;;;;;19.73;15.63;;;17.60;99.90;;;;;;5068900;22;20581;-77
2021/08/22 06:21:27;;;;;;;22.40;16.87;;;17.60;99.90;;;;;;5014702;28;20178;-77
2021/08/22 06:23:57;;;;;;;19.80;16.20;;;17.70;99.90;;;;;;5014654;28;20203;-77
2021/08/22 06:26:24;;;;;;;21.70;16.30;;;17.70;99.90;;;;;;5015313;28;20226;-79
2021/08/22 06:28:51;;;;;;;21.77;16.67;;;17.80;99.90;;;;;;5030285;28;20183;-77
2021/08/22 06:31:16;;;;;;;19.77;16.00;;;17.80;99.90;;;;;;5030632;28;20178;-77
2021/08/22 06:33:42;;;;;;;21.87;16.67;;;17.90;99.90;;;;;;5014375;28;20550;-77
2021/08/22 06:36:08;;;;;;;19.73;16.00;;;17.90;99.90;;;;;;5030839;28;20706;-77
2021/08/22 06:38:33;;;;;;;21.37;16.50;;;18.00;99.90;;;;;;5014112;28;20206;-77
2021/08/22 06:40:59;;;;;;;21.43;17.10;;;18.00;99.90;;;;;;5030664;28;20236;-76
2021/08/22 06:43:24;;;;;;;22.13;16.03;;;18.00;99.90;;;;;;5030603;28;20202;-77
2021/08/22 06:45:50;;;;;;;21.47;16.37;;;18.00;99.90;;;;;;5030835;28;20206;-77
2021/08/22 06:48:15;;;;;;;22.27;16.93;;;18.00;99.90;;;;;;5013899;28;20195;-77
2021/08/22 06:50:44;;;;;;;22.63;17.17;;;17.90;99.90;;;;;;5014068;28;20225;-76
2021/08/22 06:53:10;;;;;;;25.27;17.63;;;17.90;99.90;;;;;;5014501;28;20175;-76
2021/08/22 06:55:36;;;;;;;22.03;17.73;;;17.90;99.90;;;;;;5014315;28;20187;-77
2021/08/22 06:58:01;;;;;;;23.40;18.33;;;17.90;99.90;;;;;;5030462;28;20701;-76
2021/08/22 07:00:27;;;;;;;23.93;18.70;;;18.00;99.90;;;;;;5013945;28;20677;-77
2021/08/22 07:02:52;;;;;;;24.37;18.83;;;18.00;99.90;;;;;;5014212;28;20273;-77
2021/08/22 07:05:18;;;;;;;25.37;18.97;;;18.10;99.90;;;;;;5014196;28;20202;-77
2021/08/22 07:07:43;;;;;;;27.33;20.37;;;18.20;99.90;;;;;;5033114;28;20194;-76
2021/08/22 07:10:10;;;;;;;25.73;18.43;;;18.40;99.90;;;;;;5033753;28;20175;-77
2021/08/22 07:12:36;;;;;;;24.57;19.47;;;18.40;99.90;;;;;;5033995;28;20617;-76
2021/08/22 07:15:02;;;;;;;23.93;19.33;;;18.40;99.90;;;;;;5034083;28;20576;-76
2021/08/22 07:17:27;;;;;;;25.87;19.57;;;18.30;99.90;;;;;;5017325;28;20740;-77
2021/08/22 07:19:53;;;;;;;26.27;21.23;;;18.40;99.90;;;;;;5033599;28;20175;-77
2021/08/22 07:22:18;;;;;;;28.90;20.50;;;18.40;99.90;;;;;;5018023;28;20186;-77
2021/08/22 07:24:45;;;;;;;27.47;21.13;;;18.50;99.90;;;;;;5034043;28;20234;-77
2021/08/22 07:27:10;;;;;;;30.73;22.40;;;18.60;99.90;;;;;;5017333;28;20179;-77
2021/08/22 07:29:36;;;;;;;28.60;22.77;;;18.80;99.90;;;;;;5017305;28;20182;-76
2021/08/22 07:32:02;;;;;;;31.60;22.20;;;19.10;99.90;;;;;;5017387;28;20717;-77
2021/08/22 07:34:28;;;;;;;29.23;22.10;;;19.40;99.90;;;;;;5034148;28;20175;-76
2021/08/22 07:36:54;;;;;;;30.93;22.43;;;19.60;99.90;;;;;;5034030;28;20270;-77
2021/08/22 07:39:19;;;;;;;30.97;22.63;;;19.70;99.90;;;;;;5033638;28;20190;-77
2021/08/22 07:41:45;;;;;;;30.73;22.60;;;19.80;99.90;;;;;;5033772;28;20717;-77
2021/08/22 07:44:10;;;;;;;28.60;21.63;;;19.80;99.90;;;;;;5034011;28;20244;-77
2021/08/22 07:46:36;;;;;;;30.27;22.60;;;19.90;99.90;;;;;;5017600;28;20197;-77
2021/08/22 07:49:01;;;;;;;29.97;21.73;;;19.80;99.90;;;;;;5033470;28;20563;-77
2021/08/22 07:51:27;;;;;;;31.10;22.33;;;19.70;99.90;;;;;;5035203;28;20544;-77
2021/08/22 07:53:52;;;;;;;29.97;21.67;;;19.60;99.90;;;;;;5017553;28;20201;-77
2021/08/22 07:56:18;;;;;;;31.00;22.50;;;19.40;99.90;;;;;;5033681;28;20548;-77
2021/08/22 07:58:43;;;;;;;31.70;22.07;;;19.20;99.90;;;;;;5033376;28;20214;-77
2021/08/22 08:01:09;;;;;;;32.33;23.10;;;19.10;99.90;;;;;;5017164;28;20187;-77
2021/08/22 08:03:34;;;;;;;32.77;22.97;;;19.10;99.90;;;;;;5033589;28;20182;-77
2021/08/22 08:06:00;;;;;;;34.20;24.13;;;19.00;99.90;;;;;;5033232;28;20238;-77
2021/08/22 08:08:25;;;;;;;32.80;23.57;;;18.90;99.90;;;;;;5033329;28;20194;-77
2021/08/22 08:10:51;;;;;;;33.77;23.77;;;18.80;99.90;;;;;;5033276;28;20584;-76
2021/08/22 08:13:17;;;;;;;32.57;22.77;;;18.80;99.90;;;;;;5017183;28;20194;-77
2021/08/22 08:15:42;;;;;;;35.20;23.73;;;18.70;99.90;;;;;;5034751;28;20190;-77
2021/08/22 08:18:08;;;;;;;33.90;24.13;;;18.70;99.90;;;;;;5032317;28;20289;-77
2021/08/22 08:20:34;;;;;;;32.20;23.30;;;18.70;99.90;;;;;;5016274;28;20210;-77
2021/08/22 08:23:00;;;;;;;31.63;22.43;;;18.70;99.90;;;;;;5033379;28;20202;-77
2021/08/22 08:25:25;;;;;;;33.27;23.10;;;18.80;99.90;;;;;;5033060;28;20198;-77
2021/08/22 08:27:51;;;;;;;31.37;22.77;;;18.80;99.90;;;;;;5032707;28;20670;-77
2021/08/22 08:30:16;;;;;;;35.20;22.70;;;18.90;99.90;;;;;;5033056;28;20175;-77
2021/08/22 08:32:42;;;;;;;32.87;23.47;;;18.90;99.90;;;;;;5033166;28;20182;-77
2021/08/22 08:35:10;;;;;;;31.27;22.70;;;19.00;99.90;;;;;;5033471;28;20638;-76
2021/08/22 08:37:36;;;;;;;31.87;23.80;;;19.10;99.90;;;;;;5016646;28;20617;-77
2021/08/22 08:40:03;;;;;;;33.40;23.23;;;19.30;99.90;;;;;;5016244;28;20175;-77
2021/08/22 08:42:33;;;;;;;33.40;23.57;;;19.40;99.90;;;;;;5032961;28;20236;-77
2021/08/22 08:44:59;;;;;;;30.90;22.37;;;19.50;99.90;;;;;;5032626;28;20686;-77
2021/08/22 08:47:26;;;;;;;33.47;22.57;;;19.50;99.90;;;;;;5032787;28;20190;-77
2021/08/22 08:50:50;;;;;;;34.43;23.27;;;19.60;99.90;;;;;;5032695;28;20225;-77
2021/08/22 08:53:21;;;;;;;29.67;21.67;;;19.60;99.90;;;;;;4991608;28;20675;-77
2021/08/22 08:55:55;;;;;;;30.20;22.50;;;19.60;99.90;;;;;;4960247;28;20288;-77
2021/08/22 08:58:21;;;;;;;30.50;21.97;;;19.70;99.90;;;;;;5021195;28;20214;-77
2021/08/22 09:00:47;;;;;;;31.30;22.43;;;19.80;99.90;;;;;;5032330;28;20171;-77
2021/08/22 09:03:14;;;;;;;30.47;22.17;;;19.80;99.90;;;;;;5016158;28;20210;-77
2021/08/22 09:06:05;;;;;;;28.20;21.47;;;19.70;99.90;;;;;;5016030;28;20738;-77
2021/08/22 09:08:39;;;;;;;28.73;21.23;;;19.90;99.90;;;;;;5031960;28;20191;-76
2021/08/22 09:11:42;;;;;;;28.50;20.87;;;20.00;99.90;;;;;;5033800;28;20177;-77
2021/08/22 09:14:32;;;;;;;23.40;18.00;;;20.00;99.90;;;;;;5033689;28;20171;-77
2021/08/22 09:17:35;;;;;;;22.70;17.70;;;20.30;99.90;;;;;;5033048;28;20638;-77
2021/08/22 09:20:23;;;;;;;23.07;17.67;;;20.50;99.90;;;;;;5033125;28;20186;-77
2021/08/22 09:23:25;;;;;;;18.83;14.90;;;20.50;99.90;;;;;;5032034;28;20171;-77
2021/08/22 09:26:29;;;;;;;17.33;13.40;;;20.60;99.90;;;;;;5032655;28;20277;-76
2021/08/22 09:29:31;;;;;;;16.17;13.27;;;20.80;99.90;;;;;;5032938;28;20190;-77
2021/08/22 09:32:15;;;;;;;14.83;11.67;;;20.80;99.90;;;;;;5033061;28;20175;-77
2021/08/22 09:35:14;;;;;;;14.60;11.80;;;21.00;99.90;;;;;;5033061;28;20673;-77
2021/08/22 09:38:07;;;;;;;11.63;9.73;;;21.20;99.90;;;;;;5033055;28;20206;-77
2021/08/22 09:40:36;;;;;;;12.20;10.03;;;21.40;99.90;;;;;;5030863;28;20179;-76
2021/08/22 09:43:39;;;;;;;12.30;9.20;;;21.50;99.90;;;;;;5033231;28;20178;-77
2021/08/22 09:46:42;;;;;;;11.57;9.83;;;21.80;99.90;;;;;;5032766;28;20199;-77
2021/08/22 09:49:27;;;;;;;11.00;8.77;;;21.90;99.90;;;;;;5030958;28;20190;-76
2021/08/22 09:52:35;;;;;;;11.90;9.47;;;21.70;99.90;;;;;;5033106;28;20178;-77
2021/08/22 09:55:38;;;;;;;11.60;9.20;;;21.50;99.90;;;;;;5033523;28;20202;-77
2021/08/22 09:58:40;;;;;;;10.47;8.37;;;21.20;99.90;;;;;;5032870;28;20198;-77
2021/08/22 10:01:31;;;;;;;11.50;9.10;;;21.00;99.90;;;;;;5031334;28;20182;-77
2021/08/22 10:04:18;;;;;;;9.50;8.57;;;20.90;99.90;;;;;;5032839;28;20269;-77
2021/08/22 10:06:52;;;;;;;10.53;8.53;;;20.80;99.90;;;;;;5033196;28;20202;-77
2021/08/22 10:09:22;;;;;;;10.07;8.83;;;20.80;99.90;;;;;;5031763;28;20676;-77
2021/08/22 10:12:00;;;;;;;9.40;8.13;;;20.80;99.90;;;;;;5031873;28;20257;-77
2021/08/22 10:14:27;;;;;;;9.37;7.67;;;20.80;99.90;;;;;;5032250;28;20171;-77
2021/08/22 10:16:56;;;;;;;8.90;8.00;;;20.90;99.90;;;;;;5015386;28;20182;-77
2021/08/22 10:19:28;;;;;;;9.93;8.43;;;21.00;99.90;;;;;;5015391;28;20195;-77
2021/08/22 10:22:09;;;;;;;9.80;8.80;;;21.10;99.90;;;;;;5031813;28;20592;-77
2021/08/22 10:24:43;;;;;;;9.63;8.23;;;21.30;99.90;;;;;;5031841;28;20183;-77
2021/08/22 10:27:09;;;;;;;9.53;8.63;;;21.40;99.90;;;;;;5034253;28;20583;-77
2021/08/22 10:29:59;;;;;;;9.47;8.47;;;21.70;99.90;;;;;;5016557;28;20175;-77
2021/08/22 10:32:25;;;;;;;9.60;7.50;;;21.90;99.90;;;;;;5018807;28;20175;-77
2021/08/22 10:35:09;;;;;;;8.47;6.87;;;22.20;99.90;;;;;;5032145;28;20218;-77
2021/08/22 10:37:35;;;;;;;6.70;6.10;;;22.50;99.90;;;;;;5033306;28;20199;-77
2021/08/22 10:40:22;;;;;;;7.33;6.13;;;22.70;99.90;;;;;;5015350;28;20189;-77
2021/08/22 10:42:57;;;;;;;6.93;5.13;;;22.70;99.90;;;;;;5034776;28;20183;-77
2021/08/22 10:45:48;;;;;;;6.83;5.93;;;22.80;99.90;;;;;;5020714;28;20210;-77
2021/08/22 10:48:22;;;;;;;7.10;5.40;;;22.90;99.90;;;;;;5036694;28;20195;-77
2021/08/22 10:51:00;;;;;;;5.80;5.20;;;23.00;99.90;;;;;;5035146;28;20736;-77
2021/08/22 10:53:29;;;;;;;5.40;4.90;;;22.80;99.90;;;;;;5036625;28;20174;-77
2021/08/22 10:55:55;;;;;;;6.20;5.00;;;22.60;99.90;;;;;;5035235;28;20179;-77
2021/08/22 10:58:22;;;;;;;5.30;4.80;;;22.60;99.90;;;;;;5018374;28;20237;-77
2021/08/22 11:00:47;;;;;;;5.37;4.53;;;22.50;99.90;;;;;;5018699;28;20646;-77
2021/08/22 11:03:16;;;;;;;5.43;4.57;;;22.50;99.90;;;;;;5035554;28;20229;-77
2021/08/22 11:05:41;;;;;;;4.73;4.33;;;22.60;99.90;;;;;;5035188;28;20210;-77
2021/08/22 11:08:20;;;;;;;4.80;4.27;;;22.50;99.90;;;;;;5018383;28;20199;-77
2021/08/22 11:11:04;;;;;;;5.80;4.63;;;22.50;99.90;;;;;;5019477;28;20178;-77
2021/08/22 11:13:36;;;;;;;4.30;3.90;;;22.30;99.90;;;;;;5036648;28;20214;-77
2021/08/22 11:16:04;;;;;;;4.67;4.27;;;22.20;99.90;;;;;;5018863;28;20179;-77
2021/08/22 11:18:30;;;;;;;4.83;4.37;;;22.10;99.90;;;;;;5018298;28;20229;-77
2021/08/22 11:20:55;;;;;;;4.60;4.20;;;22.10;99.90;;;;;;5034728;28;20187;-77
2021/08/22 11:23:21;;;;;;;6.60;5.70;;;22.20;99.90;;;;;;5018802;28;20186;-77
2021/08/22 11:25:48;;;;;;;5.83;5.20;;;22.50;99.90;;;;;;5019098;28;20583;-77
2021/08/22 11:28:15;;;;;;;5.03;4.53;;;22.60;99.90;;;;;;5035869;28;20198;-77
2021/08/22 11:30:42;;;;;;;5.60;5.10;;;22.70;99.90;;;;;;5018709;28;20229;-77
2021/08/22 11:33:07;;;;;;;5.57;4.20;;;22.70;99.90;;;;;;5018644;28;20194;-77
2021/08/22 11:35:37;;;;;;;4.73;4.00;;;22.70;99.90;;;;;;5019657;28;20178;-77
2021/08/22 11:38:03;;;;;;;5.40;4.20;;;22.60;99.90;;;;;;5021044;28;20199;-77
2021/08/22 11:40:29;;;;;;;4.47;4.07;;;22.60;99.90;;;;;;5037161;28;20189;-76
2021/08/22 11:42:56;;;;;;;4.17;3.70;;;22.50;99.90;;;;;;5020939;28;20190;-77
2021/08/22 11:45:24;;;;;;;3.40;3.10;;;22.60;99.90;;;;;;5037449;28;20225;-77
2021/08/22 11:47:51;;;;;;;3.53;3.23;;;22.80;99.90;;;;;;5021676;28;20206;-78
2021/08/22 11:50:16;;;;;;;4.57;3.63;;;23.00;99.90;;;;;;5038796;28;20196;-77
2021/08/22 11:52:44;;;;;;;3.70;3.30;;;23.00;99.90;;;;;;5019312;28;20274;-77
2021/08/22 11:55:10;;;;;;;5.13;4.63;;;23.00;99.90;;;;;;5036169;28;20177;-77
2021/08/22 11:57:36;;;;;;;6.67;5.80;;;22.90;99.90;;;;;;5021918;28;20206;-77
2021/08/22 12:00:09;;;;;;;6.20;5.60;;;22.80;99.90;;;;;;5036443;28;20182;-77
2021/08/22 12:02:35;;;;;;;6.87;5.63;;;22.70;99.90;;;;;;5036264;28;20179;-77
2021/08/22 12:05:18;;;;;;;6.97;5.80;;;22.60;99.90;;;;;;5035869;28;20207;-77
2021/08/22 12:07:45;;;;;;;5.50;5.00;;;22.50;99.90;;;;;;5019870;28;20215;-77
2021/08/22 12:10:28;;;;;;;4.63;4.23;;;22.40;99.90;;;;;;5036046;28;20220;-77
2021/08/22 12:12:54;;;;;;;4.73;4.33;;;22.50;99.90;;;;;;5036526;28;20175;-77
2021/08/22 12:15:34;;;;;;;5.90;4.90;;;22.40;99.90;;;;;;5021523;28;20273;-77
2021/08/22 12:18:19;;;;;;;7.90;4.70;;;22.40;99.90;;;;;;5035795;28;20598;-78
2021/08/22 12:20:46;;;;;;;5.43;4.17;;;22.30;99.90;;;;;;5032777;28;20175;-77
2021/08/22 12:23:12;;;;;;;4.50;4.10;;;22.30;99.90;;;;;;5016534;28;20179;-77
2021/08/22 12:25:40;;;;;;;3.60;3.10;;;22.30;99.90;;;;;;5033089;28;20214;-77
2021/08/22 12:28:20;;;;;;;3.77;3.17;;;22.40;99.90;;;;;;5033178;28;20214;-78
2021/08/22 12:30:47;;;;;;;5.03;3.20;;;22.40;99.90;;;;;;5032713;28;20171;-78
2021/08/22 12:33:29;;;;;;;3.83;2.80;;;22.50;99.90;;;;;;5032981;28;20163;-77
2021/08/22 12:36:11;;;;;;;2.63;2.43;;;22.60;99.90;;;;;;5016328;28;20189;-78
2021/08/22 12:38:45;;;;;;;4.20;3.00;;;22.60;99.90;;;;;;5032867;28;20229;-78
2021/08/22 12:41:23;;;;;;;3.07;2.53;;;22.70;99.90;;;;;;5016127;28;20221;-77
2021/08/22 12:43:48;;;;;;;3.77;2.70;;;22.70;99.90;;;;;;5033571;28;20254;-77
2021/08/22 12:46:14;;;;;;;3.20;2.90;;;22.60;99.90;;;;;;5032689;28;20289;-78